Time;durP1;ratioP1;P1;durP2;ratioP2;P2;SDS_P1;SDS_P2;PMS_P1;PMS_P2;Temp;Humidity;BMP_temperature;BMP_pressure;BME280_temperature;BME280_humidity;BME280_pressure;Samples;Min_cycle;Max_cycle;Signal;HPM_P1;HPM_P2
2023/02/26 00:02:25;;;;;;;3.33;1.30;;;2.30;98.30;;;;;;5064091;28;20469;-68
2023/02/26 00:04:51;;;;;;;5.67;1.60;;;2.20;98.30;;;;;;5072974;28;20032;-68
2023/02/26 00:07:16;;;;;;;2.03;1.40;;;2.20;98.50;;;;;;5072757;28;20259;-68
2023/02/26 00:09:42;;;;;;;2.00;1.33;;;2.20;98.50;;;;;;5088656;28;20024;-69
2023/02/26 00:12:11;;;;;;;3.53;1.57;;;2.10;98.60;;;;;;5093027;28;20020;-69
2023/02/26 00:14:37;;;;;;;6.07;1.38;;;2.00;98.80;;;;;;5092871;28;20024;-68
2023/02/26 00:17:40;;;;;;;3.15;1.52;;;2.00;98.90;;;;;;5090522;28;20047;-69
2023/02/26 00:20:09;;;;;;;4.22;1.40;;;2.00;99.10;;;;;;5092590;28;20051;-69
2023/02/26 00:22:35;;;;;;;3.63;1.50;;;2.00;99.00;;;;;;5074532;28;20395;-69
2023/02/26 00:25:00;;;;;;;6.60;2.67;;;1.90;99.20;;;;;;5092248;28;20103;-68
2023/02/26 00:27:26;;;;;;;4.07;1.57;;;1.80;99.30;;;;;;5093092;28;20028;-69
2023/02/26 00:29:52;;;;;;;2.83;1.30;;;1.80;99.50;;;;;;5074228;28;20020;-69
2023/02/26 00:32:18;;;;;;;3.10;1.60;;;1.80;99.50;;;;;;5074330;28;20484;-68
2023/02/26 00:34:45;;;;;;;2.67;1.47;;;1.80;99.60;;;;;;5092923;28;20036;-69
2023/02/26 00:37:32;;;;;;;3.70;1.73;;;1.80;99.80;;;;;;5093315;28;20274;-69
2023/02/26 00:40:21;;;;;;;2.53;1.40;;;1.70;99.70;;;;;;5083644;28;20028;-69
2023/02/26 00:42:47;;;;;;;4.63;1.55;;;1.70;99.70;;;;;;5076680;28;20421;-69
2023/02/26 00:45:13;;;;;;;4.28;1.90;;;1.60;99.90;;;;;;5075149;28;20028;-69
2023/02/26 00:48:06;;;;;;;3.47;1.70;;;1.60;99.90;;;;;;5095168;28;20029;-69
2023/02/26 00:50:32;;;;;;;2.47;1.42;;;1.60;99.90;;;;;;5097237;28;20046;-69
2023/02/26 00:53:11;;;;;;;3.40;1.48;;;1.50;99.90;;;;;;5078592;28;20107;-69
2023/02/26 00:55:38;;;;;;;3.65;1.63;;;1.50;99.90;;;;;;5078645;28;20031;-69
2023/02/26 00:58:03;;;;;;;4.75;1.83;;;1.50;99.90;;;;;;5078637;28;20499;-69
2023/02/26 01:00:29;;;;;;;2.63;1.33;;;1.50;99.90;;;;;;5097444;28;20036;-68
2023/02/26 01:02:55;;;;;;;3.75;1.40;;;1.40;99.90;;;;;;5096100;28;20425;-69
2023/02/26 01:05:21;;;;;;;4.23;1.50;;;1.40;99.90;;;;;;5078999;28;20032;-69
2023/02/26 01:07:57;;;;;;;3.03;1.85;;;1.40;99.90;;;;;;5096680;28;20293;-69
2023/02/26 01:10:23;;;;;;;5.00;1.60;;;1.40;99.90;;;;;;5078238;28;20035;-69
2023/02/26 01:12:49;;;;;;;2.70;1.73;;;1.40;99.90;;;;;;5095433;28;20028;-68
2023/02/26 01:15:15;;;;;;;4.57;1.90;;;1.40;99.90;;;;;;5096348;28;20055;-69
2023/02/26 01:18:07;;;;;;;2.95;1.60;;;1.30;99.90;;;;;;5095567;28;20071;-69
2023/02/26 01:20:41;;;;;;;6.30;1.65;;;1.30;99.90;;;;;;4993495;28;20112;-68
2023/02/26 01:23:13;;;;;;;3.63;1.75;;;1.40;99.90;;;;;;4978224;28;20130;-68
2023/02/26 01:26:01;;;;;;;3.20;1.70;;;1.40;99.90;;;;;;4992428;28;20561;-68
2023/02/26 01:28:27;;;;;;;6.13;1.88;;;1.30;99.90;;;;;;4993415;28;20054;-68
2023/02/26 01:30:59;;;;;;;3.75;1.60;;;1.30;99.90;;;;;;4987175;28;20446;-68
2023/02/26 01:33:46;;;;;;;2.60;1.30;;;1.30;99.90;;;;;;4958332;28;20027;-68
2023/02/26 01:36:23;;;;;;;6.80;1.95;;;1.30;99.90;;;;;;4977035;28;20104;-68
2023/02/26 01:39:05;;;;;;;5.40;1.80;;;1.20;99.90;;;;;;4977507;28;20117;-68
2023/02/26 01:41:38;;;;;;;5.88;1.90;;;1.20;99.90;;;;;;4977986;28;20044;-68
2023/02/26 01:44:24;;;;;;;5.88;1.80;;;1.10;99.90;;;;;;4993970;28;20037;-69
2023/02/26 01:47:00;;;;;;;6.03;2.10;;;1.10;99.90;;;;;;4976397;28;20503;-69
2023/02/26 01:49:26;;;;;;;4.75;2.00;;;1.20;99.90;;;;;;4975732;28;20451;-68
2023/02/26 01:51:57;;;;;;;7.93;1.95;;;1.10;99.90;;;;;;4981114;28;20039;-68
2023/02/26 01:54:32;;;;;;;4.95;2.00;;;1.10;99.90;;;;;;4976419;28;20030;-68
2023/02/26 01:57:11;;;;;;;3.88;2.00;;;1.00;99.90;;;;;;5016911;28;20431;-69
2023/02/26 01:59:42;;;;;;;3.85;1.65;;;1.00;99.90;;;;;;5057518;28;20473;-69
2023/02/26 02:02:10;;;;;;;7.20;2.00;;;0.80;99.90;;;;;;5058253;28;20027;-69
2023/02/26 02:04:37;;;;;;;6.28;1.88;;;0.80;99.90;;;;;;5058093;28;20024;-68
2023/02/26 02:07:04;;;;;;;4.68;1.60;;;0.80;99.90;;;;;;5065144;28;20442;-70
2023/02/26 02:09:31;;;;;;;3.30;1.60;;;0.80;99.90;;;;;;5094764;28;20039;-68
2023/02/26 02:12:06;;;;;;;4.70;2.05;;;0.70;99.90;;;;;;5094885;28;20038;-69
2023/02/26 02:14:57;;;;;;;4.50;1.83;;;0.70;99.90;;;;;;5076694;28;20028;-69
2023/02/26 02:17:43;;;;;;;4.80;2.00;;;0.70;99.90;;;;;;5094765;28;20028;-68
2023/02/26 02:20:27;;;;;;;8.45;1.90;;;0.70;99.90;;;;;;5094510;28;20028;-69
2023/02/26 02:23:11;;;;;;;5.50;1.90;;;0.70;99.90;;;;;;5088385;28;20570;-69
2023/02/26 02:25:55;;;;;;;7.22;2.17;;;0.80;99.90;;;;;;5076786;28;20047;-69
2023/02/26 02:28:36;;;;;;;5.03;2.05;;;0.80;99.90;;;;;;5075880;28;20149;-69
2023/02/26 02:31:33;;;;;;;5.82;2.03;;;0.90;99.90;;;;;;5094197;28;20073;-69
2023/02/26 02:34:14;;;;;;;3.72;1.60;;;0.80;99.90;;;;;;5094341;28;20024;-69
2023/02/26 02:36:50;;;;;;;4.63;1.88;;;0.70;99.90;;;;;;5075771;28;20047;-69
2023/02/26 02:39:29;;;;;;;4.70;1.88;;;0.70;99.90;;;;;;5094398;28;20012;-69
2023/02/26 02:42:07;;;;;;;4.85;1.83;;;0.60;99.90;;;;;;5094103;28;20105;-69
2023/02/26 02:44:38;;;;;;;3.75;1.65;;;0.60;99.90;;;;;;5094059;28;20480;-69
2023/02/26 02:47:05;;;;;;;4.60;2.20;;;0.60;99.90;;;;;;5093976;28;20445;-69
2023/02/26 02:50:01;;;;;;;4.45;2.00;;;0.60;99.90;;;;;;5075583;28;20036;-69
2023/02/26 02:52:47;;;;;;;3.75;1.75;;;0.60;99.90;;;;;;5075375;28;20031;-69
2023/02/26 02:55:48;;;;;;;3.97;1.67;;;0.60;99.90;;;;;;5075411;28;20100;-69
2023/02/26 02:58:20;;;;;;;4.40;2.13;;;0.80;99.90;;;;;;4976009;28;20399;-68
2023/02/26 03:00:50;;;;;;;4.45;1.90;;;0.80;99.90;;;;;;4991925;28;20030;-68
2023/02/26 03:03:25;;;;;;;14.02;2.50;;;0.80;99.90;;;;;;4976111;28;20030;-69
2023/02/26 03:05:51;;;;;;;4.32;2.10;;;0.70;99.90;;;;;;4992131;28;20057;-67
2023/02/26 03:08:21;;;;;;;5.13;2.40;;;0.60;99.90;;;;;;4975493;28;20054;-69
2023/02/26 03:10:47;;;;;;;4.88;2.53;;;0.60;99.90;;;;;;4988918;28;20274;-68
2023/02/26 03:13:20;;;;;;;5.68;2.30;;;0.60;99.90;;;;;;4991789;28;20034;-69
2023/02/26 03:16:12;;;;;;;6.97;1.88;;;0.60;99.90;;;;;;4991919;28;20034;-68
2023/02/26 03:18:54;;;;;;;5.60;2.22;;;0.60;99.90;;;;;;4990599;28;20022;-67
2023/02/26 03:21:43;;;;;;;4.82;2.50;;;0.70;99.90;;;;;;4991766;28;20169;-67
2023/02/26 03:24:25;;;;;;;5.97;2.60;;;0.70;99.90;;;;;;4956102;28;20037;-68
2023/02/26 03:26:58;;;;;;;5.07;2.30;;;0.80;99.90;;;;;;4991128;28;20542;-69
2023/02/26 03:29:53;;;;;;;7.00;2.47;;;0.80;99.90;;;;;;4991547;28;20515;-67
2023/02/26 03:33:00;;;;;;;6.10;2.22;;;0.80;99.90;;;;;;4983315;28;20030;-68
2023/02/26 03:35:40;;;;;;;6.00;2.20;;;0.80;99.90;;;;;;5026287;28;20048;-68
2023/02/26 03:38:13;;;;;;;3.85;2.00;;;0.70;99.90;;;;;;5069632;28;20028;-67
2023/02/26 03:41:02;;;;;;;5.35;2.33;;;0.70;99.90;;;;;;5072981;28;20036;-69
2023/02/26 03:43:40;;;;;;;4.28;1.60;;;0.70;99.90;;;;;;5080041;28;20044;-69
2023/02/26 03:46:10;;;;;;;3.88;1.50;;;0.60;99.90;;;;;;5075008;28;20063;-68
2023/02/26 03:48:36;;;;;;;4.05;1.88;;;0.50;99.90;;;;;;5093124;28;20523;-68
2023/02/26 03:51:09;;;;;;;5.80;2.17;;;0.50;99.90;;;;;;5093476;28;20051;-67
2023/02/26 03:53:55;;;;;;;4.90;1.90;;;0.50;99.90;;;;;;5074944;28;20028;-68
2023/02/26 03:56:42;;;;;;;5.97;2.90;;;0.50;99.90;;;;;;5093485;28;20082;-69
2023/02/26 03:59:08;;;;;;;3.95;2.30;;;0.40;99.90;;;;;;5093538;28;20021;-69
2023/02/26 04:01:47;;;;;;;5.17;1.77;;;0.40;99.90;;;;;;5093705;28;20024;-68
2023/02/26 04:04:22;;;;;;;4.25;2.20;;;0.30;99.90;;;;;;5075649;28;20028;-68
2023/02/26 04:06:48;;;;;;;5.22;2.05;;;0.30;99.90;;;;;;5061771;28;20036;-70
2023/02/26 04:09:14;;;;;;;5.00;1.87;;;0.30;99.90;;;;;;5093609;28;20102;-69
2023/02/26 04:11:41;;;;;;;7.05;2.38;;;0.30;99.90;;;;;;5088568;28;20316;-69
2023/02/26 04:14:06;;;;;;;5.68;1.95;;;0.20;99.90;;;;;;5055146;28;20085;-69
2023/02/26 04:16:32;;;;;;;5.67;2.47;;;0.10;99.90;;;;;;5087520;28;20389;-68
2023/02/26 04:18:57;;;;;;;6.43;2.20;;;0.00;99.90;;;;;;5092742;28;20099;-68
2023/02/26 04:21:23;;;;;;;5.40;2.50;;;-0.10;99.90;;;;;;5075538;28;20051;-69
2023/02/26 04:23:49;;;;;;;3.90;2.23;;;-0.10;99.90;;;;;;5079715;28;20150;-68
2023/02/26 04:26:14;;;;;;;5.07;2.53;;;-0.10;99.90;;;;;;5099312;28;20510;-69
2023/02/26 04:28:40;;;;;;;5.37;2.60;;;-0.10;99.90;;;;;;5086124;28;20420;-68
2023/02/26 04:31:07;;;;;;;4.40;2.17;;;-0.10;99.90;;;;;;5097503;28;20028;-67
2023/02/26 04:33:33;;;;;;;6.18;2.15;;;-0.10;99.90;;;;;;5096527;28;20032;-69
2023/02/26 04:35:59;;;;;;;8.48;2.40;;;-0.10;99.90;;;;;;5096491;28;20031;-68
2023/02/26 04:38:25;;;;;;;;;;;-0.10;99.90;;;;;;5096809;28;20031;-68
2023/02/26 04:40:51;;;;;;;3.55;2.17;;;-0.20;99.90;;;;;;5096167;28;20320;-69
2023/02/26 04:43:17;;;;;;;4.30;2.30;;;-0.20;99.90;;;;;;5078188;28;20027;-69
2023/02/26 04:45:45;;;;;;;4.47;2.22;;;-0.20;99.90;;;;;;5096560;28;20033;-69
2023/02/26 04:48:12;;;;;;;8.20;2.92;;;-0.30;99.90;;;;;;5096117;28;20024;-69
2023/02/26 04:50:37;;;;;;;5.25;2.10;;;-0.40;99.90;;;;;;5096085;28;20020;-69
2023/02/26 04:53:03;;;;;;;7.53;2.53;;;-0.40;99.90;;;;;;5077955;28;20376;-68
2023/02/26 04:55:28;;;;;;;5.67;2.70;;;-0.40;99.90;;;;;;5096121;28;20023;-69
2023/02/26 04:57:54;;;;;;;5.77;2.43;;;-0.40;99.90;;;;;;5077606;28;20024;-68
2023/02/26 05:00:20;;;;;;;6.00;3.00;;;-0.50;99.90;;;;;;5077703;28;20111;-67
2023/02/26 05:02:45;;;;;;;5.68;2.25;;;-0.50;99.90;;;;;;5078760;28;20115;-69
2023/02/26 05:05:11;;;;;;;6.53;2.70;;;-0.40;99.90;;;;;;5095949;28;20053;-68
2023/02/26 05:07:37;;;;;;;3.63;2.27;;;-0.40;99.90;;;;;;5077482;28;20031;-68
2023/02/26 05:10:04;;;;;;;5.60;2.45;;;-0.30;99.90;;;;;;5077423;28;20031;-67
2023/02/26 05:12:30;;;;;;;6.00;2.38;;;-0.30;99.90;;;;;;5095311;28;20039;-68
2023/02/26 05:14:55;;;;;;;4.93;2.57;;;-0.40;99.90;;;;;;5095188;28;20028;-68
2023/02/26 05:17:21;;;;;;;5.50;2.57;;;-0.40;99.90;;;;;;5095651;28;20031;-68
2023/02/26 05:19:46;;;;;;;5.57;2.20;;;-0.50;99.90;;;;;;5077186;28;20120;-67
2023/02/26 05:22:12;;;;;;;5.27;2.50;;;-0.50;99.90;;;;;;5096202;28;20487;-69
2023/02/26 05:24:38;;;;;;;5.32;2.17;;;-0.50;99.90;;;;;;5077175;28;20122;-69
2023/02/26 05:27:03;;;;;;;9.93;2.50;;;-0.40;99.90;;;;;;5095071;28;20459;-68
2023/02/26 05:29:29;;;;;;;4.67;2.87;;;-0.40;99.90;;;;;;5095451;28;20101;-69
2023/02/26 05:31:55;;;;;;;5.60;2.73;;;-0.40;99.90;;;;;;5095259;28;20028;-68
2023/02/26 05:34:20;;;;;;;6.43;2.50;;;-0.40;99.90;;;;;;5094122;28;20023;-68
2023/02/26 05:36:46;;;;;;;5.23;2.60;;;-0.50;99.90;;;;;;5095632;28;20052;-68
2023/02/26 05:39:11;;;;;;;10.33;3.03;;;-0.40;99.90;;;;;;5077932;28;20114;-69
2023/02/26 05:41:37;;;;;;;7.70;2.67;;;-0.30;99.90;;;;;;5091249;28;20044;-70
2023/02/26 05:44:03;;;;;;;5.00;2.70;;;-0.40;99.90;;;;;;5076380;28;20047;-69
2023/02/26 05:46:28;;;;;;;8.50;2.70;;;-0.40;99.90;;;;;;5095214;28;20082;-69
2023/02/26 05:48:57;;;;;;;9.27;2.80;;;-0.50;99.90;;;;;;5077081;28;20028;-69
2023/02/26 05:51:22;;;;;;;10.80;2.63;;;-0.50;99.90;;;;;;5077015;28;20052;-69
2023/02/26 05:53:48;;;;;;;7.63;3.17;;;-0.60;99.90;;;;;;5095294;28;20054;-70
2023/02/26 05:56:13;;;;;;;8.50;2.57;;;-0.60;99.90;;;;;;5095197;28;20430;-68
2023/02/26 05:58:40;;;;;;;9.17;2.50;;;-0.60;99.90;;;;;;5096419;28;20024;-70
2023/02/26 06:01:05;;;;;;;7.18;2.97;;;-0.60;99.90;;;;;;5095237;28;20012;-70
2023/02/26 06:03:31;;;;;;;5.93;2.70;;;-0.60;99.90;;;;;;5096036;28;20077;-69
2023/02/26 06:05:56;;;;;;;5.93;2.63;;;-0.60;99.90;;;;;;5094968;28;20039;-69
2023/02/26 06:08:22;;;;;;;4.83;2.50;;;-0.60;99.90;;;;;;5095342;28;20028;-69
2023/02/26 06:10:50;;;;;;;7.43;2.40;;;-0.40;99.90;;;;;;5095020;28;20031;-68
2023/02/26 06:13:15;;;;;;;7.72;2.63;;;-0.30;99.90;;;;;;5094445;28;20036;-69
2023/02/26 06:15:41;;;;;;;7.20;2.77;;;-0.30;99.90;;;;;;5095221;28;20077;-69
2023/02/26 06:18:07;;;;;;;9.27;3.07;;;-0.30;99.90;;;;;;5094525;28;20032;-69
2023/02/26 06:20:36;;;;;;;7.18;2.70;;;-0.40;99.90;;;;;;5094755;28;20070;-69
2023/02/26 06:23:01;;;;;;;9.27;2.75;;;-0.40;99.90;;;;;;5094343;28;20030;-70
2023/02/26 06:25:27;;;;;;;6.57;3.03;;;-0.50;99.90;;;;;;5076679;28;20112;-69
2023/02/26 06:27:52;;;;;;;5.57;2.60;;;-0.50;99.90;;;;;;5093875;28;20259;-68
2023/02/26 06:30:18;;;;;;;8.37;3.10;;;-0.50;99.90;;;;;;5095124;28;20024;-68
2023/02/26 06:32:44;;;;;;;5.50;2.67;;;-0.60;99.90;;;;;;5085007;28;20024;-69
2023/02/26 06:35:09;;;;;;;8.83;2.70;;;-0.50;99.90;;;;;;5079865;28;20028;-69
2023/02/26 06:37:35;;;;;;;8.60;2.92;;;-0.60;99.90;;;;;;5082636;28;20385;-69
2023/02/26 06:40:02;;;;;;;9.15;2.85;;;-0.60;99.90;;;;;;5097792;28;20032;-69
2023/02/26 06:42:28;;;;;;;6.57;2.67;;;-0.60;99.90;;;;;;5085663;28;20042;-69
2023/02/26 06:44:54;;;;;;;5.77;2.80;;;-0.60;99.90;;;;;;5082036;28;20028;-69
2023/02/26 06:47:19;;;;;;;8.43;2.90;;;-0.60;99.90;;;;;;5081440;28;20028;-69
2023/02/26 06:49:45;;;;;;;5.20;3.03;;;-0.60;99.90;;;;;;5076108;28;20063;-69
2023/02/26 06:52:10;;;;;;;7.07;3.07;;;-0.60;99.90;;;;;;5075614;28;20035;-69
2023/02/26 06:54:36;;;;;;;10.53;4.30;;;-0.50;99.90;;;;;;5075756;28;20020;-69
2023/02/26 06:57:02;;;;;;;11.53;3.37;;;-0.60;99.90;;;;;;5075625;28;20039;-69
2023/02/26 06:59:27;;;;;;;10.93;3.80;;;-0.60;99.90;;;;;;5075320;28;20020;-68
2023/02/26 07:01:53;;;;;;;6.88;2.95;;;-0.60;99.90;;;;;;5093038;28;20103;-70
2023/02/26 07:04:19;;;;;;;7.17;2.73;;;-0.50;99.90;;;;;;5073563;28;20056;-67
2023/02/26 07:06:44;;;;;;;9.63;3.33;;;-0.50;99.90;;;;;;5074183;28;20492;-69
2023/02/26 07:09:10;;;;;;;6.00;2.87;;;-0.40;99.90;;;;;;5069415;28;20098;-69
2023/02/26 07:11:35;;;;;;;6.50;2.83;;;-0.50;99.90;;;;;;5075891;28;20039;-69
2023/02/26 07:14:01;;;;;;;9.80;2.90;;;-0.40;99.90;;;;;;5076999;28;20040;-69
2023/02/26 07:16:26;;;;;;;6.37;3.20;;;-0.30;99.90;;;;;;5094191;28;20464;-69
2023/02/26 07:18:52;;;;;;;11.77;3.20;;;-0.20;99.90;;;;;;5093223;28;20392;-69
2023/02/26 07:21:17;;;;;;;8.77;3.23;;;-0.20;99.90;;;;;;5093304;28;20054;-69
2023/02/26 07:23:43;;;;;;;12.20;3.17;;;-0.10;99.90;;;;;;5089543;28;20082;-69
2023/02/26 07:26:08;;;;;;;10.53;2.70;;;-0.20;99.90;;;;;;5056512;28;20039;-70
2023/02/26 07:28:34;;;;;;;6.60;3.53;;;-0.10;99.90;;;;;;5075312;28;20450;-70
2023/02/26 07:31:00;;;;;;;8.68;2.90;;;-0.10;99.90;;;;;;5057842;28;20082;-70
2023/02/26 07:33:27;;;;;;;7.53;3.22;;;-0.10;99.90;;;;;;5076851;28;20028;-70
2023/02/26 07:35:53;;;;;;;10.38;3.47;;;0.00;99.90;;;;;;5095596;28;20044;-69
2023/02/26 07:38:19;;;;;;;13.98;3.10;;;0.10;99.90;;;;;;5090811;28;20016;-69
2023/02/26 07:40:44;;;;;;;5.80;3.30;;;0.10;99.90;;;;;;5078167;28;20076;-70
2023/02/26 07:43:10;;;;;;;11.43;2.83;;;0.10;99.90;;;;;;5080538;28;20058;-69
2023/02/26 07:45:35;;;;;;;8.40;3.83;;;0.10;99.90;;;;;;5098715;28;20036;-69
2023/02/26 07:48:01;;;;;;;6.00;2.93;;;0.00;99.90;;;;;;5080640;28;20028;-70
2023/02/26 07:50:26;;;;;;;6.67;3.53;;;0.00;99.90;;;;;;5098818;28;20016;-70
2023/02/26 07:52:52;;;;;;;8.80;2.60;;;0.20;99.90;;;;;;5096259;28;20028;-70
2023/02/26 07:55:18;;;;;;;5.67;3.10;;;0.30;99.90;;;;;;5096940;28;20032;-70
2023/02/26 07:57:44;;;;;;;6.93;3.13;;;0.40;99.90;;;;;;5066090;28;20035;-70
2023/02/26 08:00:10;;;;;;;8.40;2.92;;;0.50;99.90;;;;;;5080069;28;20024;-70
2023/02/26 08:02:36;;;;;;;6.25;2.53;;;0.50;99.90;;;;;;5076699;28;20060;-70
2023/02/26 08:05:01;;;;;;;7.20;2.67;;;0.60;99.90;;;;;;5084462;28;20039;-70
2023/02/26 08:07:27;;;;;;;4.93;2.40;;;0.70;99.90;;;;;;5099667;28;20024;-70
2023/02/26 08:09:52;;;;;;;7.20;2.73;;;0.90;99.90;;;;;;5078998;28;20051;-69
2023/02/26 08:12:18;;;;;;;7.97;2.80;;;1.10;99.90;;;;;;5098384;28;20106;-69
2023/02/26 08:14:44;;;;;;;4.37;2.37;;;1.30;99.90;;;;;;5097443;28;20039;-69
2023/02/26 08:17:10;;;;;;;4.82;2.10;;;1.60;99.90;;;;;;5080547;28;20031;-70
2023/02/26 08:19:36;;;;;;;6.50;2.30;;;1.50;99.90;;;;;;5097954;28;20040;-71
2023/02/26 08:22:02;;;;;;;6.18;2.35;;;1.60;99.90;;;;;;5079356;28;20028;-70
2023/02/26 08:24:27;;;;;;;8.80;2.42;;;1.60;99.90;;;;;;5079854;28;20046;-70
2023/02/26 08:26:53;;;;;;;7.30;2.27;;;1.70;99.90;;;;;;5079760;28;20027;-69
2023/02/26 08:29:18;;;;;;;6.23;1.93;;;1.80;99.90;;;;;;5079343;28;20031;-69
2023/02/26 08:31:44;;;;;;;3.40;1.83;;;1.80;99.90;;;;;;5097088;28;20027;-70
2023/02/26 08:34:10;;;;;;;8.07;2.13;;;1.80;99.90;;;;;;5078328;28;20089;-70
2023/02/26 08:36:35;;;;;;;6.35;1.80;;;2.00;99.90;;;;;;5097005;28;20383;-70
2023/02/26 08:39:01;;;;;;;5.03;1.70;;;2.10;99.90;;;;;;5096950;28;20423;-71
2023/02/26 08:41:29;;;;;;;4.63;1.93;;;2.30;99.90;;;;;;5097555;28;20472;-70
2023/02/26 08:43:54;;;;;;;6.32;2.10;;;2.40;99.90;;;;;;5078924;28;20039;-71
2023/02/26 08:46:20;;;;;;;3.23;1.43;;;2.50;99.90;;;;;;5097226;28;20024;-71
2023/02/26 08:48:46;;;;;;;7.43;1.70;;;2.40;99.90;;;;;;5078576;28;20032;-70
2023/02/26 08:51:11;;;;;;;8.80;2.03;;;2.40;99.90;;;;;;5087676;28;20043;-70
2023/02/26 08:53:38;;;;;;;6.77;1.90;;;2.50;99.90;;;;;;5097720;28;20032;-79
2023/02/26 08:56:04;;;;;;;7.10;2.10;;;2.50;99.90;;;;;;5080540;28;20027;-71
2023/02/26 08:58:30;;;;;;;5.22;1.85;;;2.50;99.90;;;;;;5097233;28;20107;-75
2023/02/26 09:00:56;;;;;;;4.40;1.60;;;2.60;99.90;;;;;;5078771;28;20652;-71
2023/02/26 09:03:21;;;;;;;2.47;1.67;;;2.70;99.90;;;;;;5077040;28;20057;-71
2023/02/26 09:05:47;;;;;;;5.40;1.67;;;2.70;99.90;;;;;;5095364;28;20476;-73
2023/02/26 09:08:14;;;;;;;6.10;1.93;;;2.50;99.90;;;;;;5075901;28;20389;-70
2023/02/26 09:10:41;;;;;;;5.13;1.90;;;2.40;99.90;;;;;;5072016;28;20028;-71
2023/02/26 09:13:07;;;;;;;4.13;1.55;;;2.30;99.90;;;;;;5057675;28;20098;-71
2023/02/26 09:15:32;;;;;;;2.95;1.42;;;2.30;99.90;;;;;;5058162;28;20477;-71
2023/02/26 09:17:58;;;;;;;2.27;1.60;;;2.20;99.90;;;;;;5077732;28;20020;-70
2023/02/26 09:20:24;;;;;;;5.57;1.73;;;2.30;99.90;;;;;;5096001;28;20066;-71
2023/02/26 09:22:50;;;;;;;7.63;1.67;;;2.30;99.90;;;;;;5074941;28;20074;-71
2023/02/26 09:25:15;;;;;;;4.77;1.50;;;2.40;99.90;;;;;;5059519;28;20564;-71
2023/02/26 09:27:41;;;;;;;7.77;1.80;;;2.50;99.90;;;;;;5098061;28;20028;-73
2023/02/26 09:30:08;;;;;;;5.23;1.90;;;2.50;99.90;;;;;;5089148;28;20058;-71
2023/02/26 09:32:34;;;;;;;7.10;2.50;;;2.40;99.90;;;;;;5100947;28;20024;-72
2023/02/26 09:34:59;;;;;;;3.57;1.83;;;2.60;99.90;;;;;;5097570;28;20480;-71
2023/02/26 09:37:25;;;;;;;3.50;1.87;;;3.10;99.90;;;;;;5078227;28;20020;-71
2023/02/26 09:39:51;;;;;;;4.50;1.50;;;3.40;99.90;;;;;;5082611;28;20125;-73
2023/02/26 09:42:31;;;;;;;3.33;1.80;;;3.40;99.90;;;;;;5082569;28;20863;-67
2023/02/26 09:44:58;;;;;;;4.65;1.63;;;3.30;99.90;;;;;;5095609;28;20043;-64
2023/02/26 09:47:44;;;;;;;4.40;1.60;;;3.30;99.90;;;;;;5093921;28;20020;-68
2023/02/26 09:50:30;;;;;;;5.78;1.88;;;3.20;99.90;;;;;;5081789;28;20024;-74
2023/02/26 09:53:11;;;;;;;3.38;1.50;;;3.10;99.90;;;;;;5064516;28;20036;-77
2023/02/26 09:55:42;;;;;;;4.05;1.90;;;3.20;99.90;;;;;;5086227;28;20039;-78
2023/02/26 09:58:18;;;;;;;6.22;2.22;;;3.20;99.90;;;;;;5078726;28;20024;-71
2023/02/26 10:01:03;;;;;;;4.85;1.63;;;3.00;99.90;;;;;;5075911;28;20034;-75
2023/02/26 10:03:55;;;;;;;5.70;1.50;;;2.70;99.90;;;;;;5093133;28;20051;-72
2023/02/26 10:06:44;;;;;;;6.05;1.55;;;2.60;99.90;;;;;;5093352;28;20070;-71
2023/02/26 10:09:25;;;;;;;4.25;1.77;;;2.70;99.90;;;;;;5093658;28;20031;-68
2023/02/26 10:12:01;;;;;;;7.15;2.25;;;2.80;99.90;;;;;;5082236;28;20104;-71
2023/02/26 10:14:29;;;;;;;3.30;1.25;;;2.60;99.90;;;;;;5094533;28;20024;-71
2023/02/26 10:17:19;;;;;;;3.38;1.30;;;2.40;99.90;;;;;;5098670;28;20041;-78
2023/02/26 10:19:50;;;;;;;3.08;1.50;;;2.40;99.90;;;;;;5094071;28;20035;-67
2023/02/26 10:22:28;;;;;;;3.05;1.27;;;2.40;99.90;;;;;;5094476;28;20504;-68
2023/02/26 10:25:04;;;;;;;2.58;1.27;;;2.30;99.90;;;;;;5073714;28;20432;-68
2023/02/26 10:27:41;;;;;;;2.78;1.13;;;2.20;99.90;;;;;;5070815;28;20055;-67
2023/02/26 10:30:11;;;;;;;1.77;0.90;;;2.10;99.90;;;;;;5094268;28;20024;-67
2023/02/26 10:32:50;;;;;;;2.08;1.00;;;2.00;99.90;;;;;;5075797;28;20032;-68
2023/02/26 10:35:17;;;;;;;2.65;0.90;;;2.10;99.90;;;;;;5094332;28;20031;-67
2023/02/26 10:37:57;;;;;;;2.35;1.40;;;2.10;99.90;;;;;;5093290;28;20400;-71
2023/02/26 10:40:35;;;;;;;3.80;1.50;;;2.10;99.90;;;;;;5067082;28;20102;-69
2023/02/26 10:43:29;;;;;;;1.77;1.05;;;2.20;99.90;;;;;;5091646;28;20012;-77
2023/02/26 10:46:17;;;;;;;1.40;0.90;;;2.30;99.90;;;;;;5071267;28;20024;-74
2023/02/26 10:48:54;;;;;;;4.90;1.40;;;2.40;99.90;;;;;;5075500;28;20023;-75
2023/02/26 10:51:26;;;;;;;2.90;1.25;;;2.40;99.90;;;;;;5095708;28;20029;-75
2023/02/26 10:53:57;;;;;;;2.10;1.10;;;2.50;99.90;;;;;;5077007;28;20024;-74
2023/02/26 10:56:32;;;;;;;3.67;1.13;;;2.50;99.90;;;;;;5077296;28;20020;-75
2023/02/26 10:58:58;;;;;;;3.05;2.08;;;2.50;99.90;;;;;;5076724;28;20107;-75
2023/02/26 11:01:26;;;;;;;6.53;1.20;;;2.50;99.90;;;;;;5077610;28;20020;-74
2023/02/26 11:04:22;;;;;;;2.78;0.95;;;2.60;99.90;;;;;;5076355;28;20060;-75
2023/02/26 11:06:47;;;;;;;12.13;4.88;;;2.60;99.90;;;;;;5067489;28;20040;-70
2023/02/26 11:09:19;;;;;;;2.40;1.40;;;2.60;99.90;;;;;;5063815;28;20403;-71
2023/02/26 11:12:24;;;;;;;2.03;0.93;;;2.60;99.90;;;;;;5065605;28;20028;-73
2023/02/26 11:14:50;;;;;;;3.53;1.10;;;2.70;99.90;;;;;;5015197;28;20130;-72
2023/02/26 11:17:21;;;;;;;3.60;0.90;;;2.70;99.90;;;;;;4995838;28;20022;-70
2023/02/26 11:20:14;;;;;;;7.53;0.90;;;2.50;99.90;;;;;;4995266;28;20042;-69
2023/02/26 11:22:47;;;;;;;2.53;0.80;;;2.40;99.90;;;;;;4992019;28;20026;-69
2023/02/26 11:25:18;;;;;;;2.40;1.25;;;2.50;99.90;;;;;;4992062;28;20038;-69
2023/02/26 11:27:46;;;;;;;2.67;0.80;;;2.60;99.90;;;;;;4991917;28;20022;-68
2023/02/26 11:30:18;;;;;;;2.15;0.90;;;2.70;99.90;;;;;;4990300;28;20094;-70
2023/02/26 11:32:45;;;;;;;1.20;0.77;;;2.60;99.90;;;;;;5010845;28;20147;-70
2023/02/26 11:35:16;;;;;;;0.95;0.82;;;2.60;99.90;;;;;;5020941;28;20387;-69
2023/02/26 11:37:47;;;;;;;1.42;0.82;;;2.60;99.90;;;;;;4994257;28;20124;-70
2023/02/26 11:40:16;;;;;;;2.40;0.98;;;2.60;99.90;;;;;;4994741;28;20108;-71
2023/02/26 11:43:07;;;;;;;3.30;0.82;;;2.60;99.90;;;;;;5011320;28;20034;-72
2023/02/26 11:45:37;;;;;;;1.30;1.20;;;2.60;99.90;;;;;;5011535;28;20037;-68
2023/02/26 11:48:06;;;;;;;1.50;0.77;;;2.80;99.90;;;;;;4995369;28;20025;-66
2023/02/26 11:50:41;;;;;;;2.63;0.90;;;2.80;99.90;;;;;;5007567;28;20052;-67
2023/02/26 11:53:20;;;;;;;1.38;0.82;;;2.80;99.90;;;;;;5072544;28;20039;-68
2023/02/26 11:55:51;;;;;;;3.85;0.85;;;2.90;99.90;;;;;;5054759;28;20489;-67
2023/02/26 11:58:20;;;;;;;0.98;0.70;;;2.90;99.90;;;;;;5072849;28;20032;-67
2023/02/26 12:00:48;;;;;;;8.20;3.20;;;2.90;99.90;;;;;;5092853;28;20017;-68
2023/02/26 12:03:22;;;;;;;13.23;4.95;;;2.90;99.90;;;;;;5079340;28;20073;-68
2023/02/26 12:05:52;;;;;;;15.02;6.00;;;2.90;99.90;;;;;;5072819;28;20496;-68
2023/02/26 12:08:26;;;;;;;12.02;4.75;;;2.90;99.90;;;;;;5072775;28;20021;-68
2023/02/26 12:11:23;;;;;;;6.13;2.78;;;2.80;99.90;;;;;;5054496;28;20021;-68
2023/02/26 12:14:10;;;;;;;4.18;1.90;;;2.80;99.90;;;;;;5072431;28;20392;-69
2023/02/26 12:16:42;;;;;;;4.65;1.63;;;2.80;99.90;;;;;;5072714;28;20025;-68
2023/02/26 12:19:17;;;;;;;4.28;1.23;;;2.90;99.90;;;;;;5072276;28;20025;-69
2023/02/26 12:22:01;;;;;;;2.83;1.45;;;3.10;99.90;;;;;;5072958;28;20021;-68
2023/02/26 12:24:33;;;;;;;1.30;0.68;;;3.10;99.90;;;;;;5065466;28;20027;-68
2023/02/26 12:27:16;;;;;;;1.50;0.90;;;3.20;99.90;;;;;;5092648;28;20020;-68
2023/02/26 12:30:06;;;;;;;1.77;0.95;;;3.30;99.90;;;;;;5079706;28;20108;-68
2023/02/26 12:32:37;;;;;;;5.85;1.35;;;3.20;99.90;;;;;;5057837;28;20028;-69
2023/02/26 12:35:16;;;;;;;1.85;0.80;;;3.10;99.90;;;;;;5090544;28;20028;-72
2023/02/26 12:38:12;;;;;;;2.60;1.30;;;3.10;99.90;;;;;;5092818;28;20467;-74
2023/02/26 12:41:12;;;;;;;1.48;0.70;;;3.00;99.90;;;;;;5056546;28;20028;-69
2023/02/26 12:43:46;;;;;;;3.60;1.30;;;3.00;99.90;;;;;;5058296;28;20074;-70
2023/02/26 12:46:44;;;;;;;1.98;1.23;;;3.10;99.90;;;;;;5082997;28;20024;-74
2023/02/26 12:49:30;;;;;;;2.45;1.10;;;3.10;99.90;;;;;;5078570;28;20487;-73
2023/02/26 12:52:15;;;;;;;4.95;1.00;;;3.10;99.90;;;;;;5081923;28;20049;-71
2023/02/26 12:55:20;;;;;;;1.02;0.60;;;3.20;99.90;;;;;;5095385;28;20024;-72
2023/02/26 12:57:49;;;;;;;4.50;0.80;;;3.30;99.90;;;;;;5096413;28;20042;-72
2023/02/26 13:00:50;;;;;;;2.17;0.90;;;3.30;99.90;;;;;;5097105;28;20024;-74
2023/02/26 13:03:34;;;;;;;3.17;0.90;;;3.40;99.90;;;;;;5038484;28;20024;-69
2023/02/26 13:06:20;;;;;;;5.80;0.80;;;3.40;99.90;;;;;;5080856;28;20512;-75
2023/02/26 13:09:14;;;;;;;1.10;0.60;;;3.40;99.90;;;;;;5063113;28;20025;-75
2023/02/26 13:12:04;;;;;;;1.88;0.60;;;3.40;99.90;;;;;;5096128;28;20028;-70
2023/02/26 13:14:48;;;;;;;1.55;0.50;;;3.30;99.90;;;;;;5059146;28;20025;-70
2023/02/26 13:17:27;;;;;;;2.00;0.70;;;3.40;99.90;;;;;;5063988;28;20022;-69
2023/02/26 13:19:58;;;;;;;0.93;0.70;;;3.40;99.90;;;;;;5078428;28;20024;-70
2023/02/26 13:22:38;;;;;;;1.67;0.63;;;3.40;99.90;;;;;;5077889;28;20109;-69